Time;durP1;ratioP1;P1;durP2;ratioP2;P2;SDS_P1;SDS_P2;PMS_P1;PMS_P2;Temp;Humidity;BMP_temperature;BMP_pressure;BME280_temperature;BME280_humidity;BME280_pressure;Samples;Min_cycle;Max_cycle;Signal;HPM_P1;HPM_P2
2023/09/25 00:00:30;;;;;;;8.00;4.35;;;;;;;17.79;68.58;102466.84;5031741;27;99485;-72
2023/09/25 00:02:56;;;;;;;10.52;4.80;;;;;;;17.77;68.63;102468.72;5028555;27;99714;-73
2023/09/25 00:05:23;;;;;;;7.00;4.95;;;;;;;17.94;68.39;102465.38;5031905;27;96697;-72
2023/09/25 00:07:49;;;;;;;5.28;4.13;;;;;;;17.90;68.56;102461.09;5031022;27;97334;-73
2023/09/25 00:10:16;;;;;;;6.65;4.43;;;;;;;17.80;68.84;102465.91;5032025;27;98949;-72
2023/09/25 00:12:43;;;;;;;6.50;4.03;;;;;;;17.56;69.47;102460.59;5028289;27;99590;-71
2023/09/25 00:15:11;;;;;;;7.57;4.57;;;;;;;17.75;68.82;102459.00;5032366;27;96709;-71
2023/09/25 00:17:40;;;;;;;6.07;4.85;;;;;;;17.70;69.23;102466.34;5030972;27;97788;-71
2023/09/25 00:20:10;;;;;;;6.18;4.40;;;;;;;17.61;69.38;102456.84;5031711;27;98984;-71
2023/09/25 00:22:36;;;;;;;7.95;4.95;;;;;;;17.60;69.62;102471.13;5028904;27;98796;-72
2023/09/25 00:25:03;;;;;;;8.35;5.30;;;;;;;17.38;70.55;102462.19;5029734;27;96829;-71
2023/09/25 00:27:31;;;;;;;8.95;5.25;;;;;;;17.62;69.70;102455.94;5024216;27;96952;-71
2023/09/25 00:29:58;;;;;;;9.05;4.70;;;;;;;17.39;70.47;102453.22;5029535;27;99147;-72
2023/09/25 00:32:26;;;;;;;7.15;5.25;;;;;;;17.35;70.60;102457.81;5029089;27;98828;-72
2023/09/25 00:34:52;;;;;;;6.18;4.78;;;;;;;17.49;70.45;102465.31;5031213;27;96998;-72
2023/09/25 00:37:19;;;;;;;8.93;4.93;;;;;;;17.49;70.44;102455.50;5031696;27;97004;-72
2023/09/25 00:39:46;;;;;;;7.78;5.13;;;;;;;17.51;70.35;102458.13;5030818;27;98019;-72
2023/09/25 00:42:13;;;;;;;8.23;5.55;;;;;;;17.43;70.64;102461.06;5030268;27;99167;-72
2023/09/25 00:44:39;;;;;;;5.85;5.25;;;;;;;17.12;71.57;102457.78;5029960;27;96781;-73
2023/09/25 00:47:08;;;;;;;7.28;5.28;;;;;;;17.06;72.19;102460.66;5031144;28;96890;-72
2023/09/25 00:49:37;;;;;;;10.85;5.57;;;;;;;17.28;71.16;102453.59;5029243;27;99355;-72
2023/09/25 00:52:05;;;;;;;9.40;5.95;;;;;;;17.13;72.27;102465.72;5029420;27;100264;-72
2023/09/25 00:54:33;;;;;;;9.02;5.57;;;;;;;17.23;71.86;102458.25;5028649;27;97196;-71
2023/09/25 00:57:00;;;;;;;7.22;5.18;;;;;;;17.16;71.69;102455.84;5030231;27;96832;-72
2023/09/25 00:59:27;;;;;;;8.27;5.25;;;;;;;17.17;71.85;102457.59;5029851;27;99292;-72
2023/09/25 01:01:54;;;;;;;10.63;5.65;;;;;;;17.16;71.70;102453.19;5031634;27;97520;-71
2023/09/25 01:04:21;;;;;;;8.32;5.80;;;;;;;17.05;72.47;102453.56;5027588;27;96908;-71
2023/09/25 01:06:49;;;;;;;7.10;5.18;;;;;;;17.12;72.13;102450.63;5030984;27;96938;-71
2023/09/25 01:09:16;;;;;;;8.73;5.50;;;;;;;16.90;72.82;102438.97;5028025;27;102157;-71
2023/09/25 01:11:43;;;;;;;5.55;4.88;;;;;;;16.95;72.71;102447.66;5028373;27;99338;-71
2023/09/25 01:14:09;;;;;;;10.43;5.63;;;;;;;17.06;72.70;102437.50;5030101;27;96795;-71
2023/09/25 01:16:36;;;;;;;8.70;5.40;;;;;;;17.06;72.65;102437.50;5029453;27;97036;-72
2023/09/25 01:19:05;;;;;;;7.00;5.57;;;;;;;17.20;71.79;102436.13;5027988;27;98920;-72
2023/09/25 01:21:32;;;;;;;7.72;5.30;;;;;;;17.05;72.20;102446.44;5027127;27;98793;-72
2023/09/25 01:24:00;;;;;;;7.68;5.55;;;;;;;17.02;72.06;102430.50;5026638;27;96979;-72
2023/09/25 01:26:26;;;;;;;6.70;5.43;;;;;;;16.95;72.55;102431.66;5028106;27;96810;-72
2023/09/25 01:28:53;;;;;;;9.13;5.40;;;;;;;17.12;72.16;102431.06;5029199;27;97906;-72
2023/09/25 01:31:19;;;;;;;7.47;5.22;;;;;;;16.94;72.69;102434.38;5029894;27;98779;-72
2023/09/25 01:33:46;;;;;;;7.20;5.65;;;;;;;17.07;72.36;102436.56;5028680;27;97026;-73
2023/09/25 01:36:12;;;;;;;6.40;5.43;;;;;;;17.12;72.27;102431.94;5029469;27;97117;-73
2023/09/25 01:38:39;;;;;;;7.82;5.68;;;;;;;16.95;72.79;102434.31;5028412;27;100538;-72
2023/09/25 01:41:06;;;;;;;7.68;5.15;;;;;;;16.99;72.80;102435.09;5030334;27;98717;-72
2023/09/25 01:43:33;;;;;;;9.98;6.15;;;;;;;17.05;72.78;102435.75;5026195;27;96731;-71
2023/09/25 01:45:59;;;;;;;8.27;5.43;;;;;;;16.88;72.92;102431.91;5026006;27;97317;-72
2023/09/25 01:48:26;;;;;;;6.95;5.40;;;;;;;16.99;72.82;102432.44;5028302;27;99817;-72
2023/09/25 01:50:52;;;;;;;7.53;6.00;;;;;;;17.13;72.17;102425.63;5029100;27;99399;-72
2023/09/25 01:53:19;;;;;;;12.50;6.38;;;;;;;16.81;73.20;102431.25;5027843;27;96775;-71
2023/09/25 01:55:45;;;;;;;6.35;5.40;;;;;;;16.93;73.09;102427.31;5029564;27;97196;-72
2023/09/25 01:58:13;;;;;;;6.88;5.55;;;;;;;16.96;72.49;102428.06;5029287;27;100996;-72
2023/09/25 02:00:40;;;;;;;7.53;6.20;;;;;;;16.85;72.80;102422.22;5028222;27;98990;-72
2023/09/25 02:03:06;;;;;;;8.70;5.95;;;;;;;16.88;72.90;102423.91;5025288;27;96833;-72
2023/09/25 02:05:33;;;;;;;7.97;6.05;;;;;;;16.76;73.26;102427.88;5029466;27;96958;-72
2023/09/25 02:08:00;;;;;;;8.02;5.80;;;;;;;16.82;73.11;102430.34;5029702;27;99003;-72
2023/09/25 02:10:26;;;;;;;6.65;5.68;;;;;;;16.64;73.86;102428.31;5028122;27;98963;-72
2023/09/25 02:12:53;;;;;;;9.95;5.78;;;;;;;16.73;73.92;102436.00;5030390;27;98925;-72
2023/09/25 02:15:20;;;;;;;6.97;5.50;;;;;;;16.81;73.09;102439.25;5028118;27;96922;-72
2023/09/25 02:17:47;;;;;;;7.60;6.25;;;;;;;16.72;73.73;102442.28;5028374;27;98926;-72
2023/09/25 02:20:16;;;;;;;7.78;6.00;;;;;;;16.90;73.03;102428.28;5029606;27;98934;-72
2023/09/25 02:22:44;;;;;;;8.10;6.50;;;;;;;16.61;74.44;102436.41;5026237;27;96860;-72
2023/09/25 02:25:11;;;;;;;7.70;5.78;;;;;;;16.86;73.01;102432.00;5022994;27;96825;-72
2023/09/25 02:27:38;;;;;;;11.15;6.40;;;;;;;16.48;74.81;102427.91;5029543;27;98889;-72
2023/09/25 02:30:06;;;;;;;8.13;6.45;;;;;;;16.69;74.05;102426.34;5028759;27;98980;-72
2023/09/25 02:32:33;;;;;;;7.35;6.55;;;;;;;16.59;74.54;102427.56;5029516;27;96826;-72
2023/09/25 02:35:00;;;;;;;8.70;6.78;;;;;;;16.51;75.26;102429.63;5027852;27;96855;-72
2023/09/25 02:37:26;;;;;;;7.57;6.70;;;;;;;16.58;74.86;102429.38;5027796;27;100954;-72
2023/09/25 02:39:52;;;;;;;;;;;;;;;16.63;74.57;102423.88;5027744;27;98850;-72
2023/09/25 02:42:19;;;;;;;9.02;6.43;;;;;;;16.64;74.17;102428.31;5029670;27;96897;-72
2023/09/25 02:44:45;;;;;;;12.27;7.05;;;;;;;16.85;73.23;102427.56;5027485;27;96890;-72
2023/09/25 02:47:12;;;;;;;8.52;6.55;;;;;;;16.66;74.25;102429.13;5027662;27;99079;-72
2023/09/25 02:49:40;;;;;;;10.20;6.97;;;;;;;16.77;73.83;102428.75;5028801;27;98034;-72
2023/09/25 02:52:06;;;;;;;8.93;6.15;;;;;;;16.61;73.83;102423.06;5028783;27;96825;-72
2023/09/25 02:54:33;;;;;;;13.57;6.78;;;;;;;16.54;74.44;102425.03;5028886;27;96824;-71
2023/09/25 02:56:59;;;;;;;11.35;7.25;;;;;;;16.74;73.79;102424.38;5028220;27;99300;-72
2023/09/25 02:59:26;;;;;;;10.77;7.07;;;;;;;16.59;73.94;102420.44;5027119;27;101802;-72
2023/09/25 03:01:52;;;;;;;11.98;6.80;;;;;;;16.58;73.85;102421.34;5027237;27;97626;-72
2023/09/25 03:04:18;;;;;;;9.95;7.07;;;;;;;16.52;73.93;102421.56;5026857;27;96870;-72
2023/09/25 03:06:46;;;;;;;10.15;6.93;;;;;;;16.38;74.88;102433.63;5025968;27;98868;-72
2023/09/25 03:09:13;;;;;;;10.77;6.82;;;;;;;16.19;75.30;102428.88;5028440;27;99068;-72
2023/09/25 03:11:39;;;;;;;8.65;6.68;;;;;;;16.39;75.05;102436.25;5027094;27;96829;-71
2023/09/25 03:14:05;;;;;;;8.93;7.22;;;;;;;16.30;75.22;102432.06;5027281;27;99970;-72
2023/09/25 03:16:32;;;;;;;10.18;6.95;;;;;;;16.29;75.25;102430.31;5027240;27;101333;-72
2023/09/25 03:18:58;;;;;;;11.50;6.97;;;;;;;16.45;74.79;102438.69;5029052;27;98846;-72
2023/09/25 03:21:25;;;;;;;7.95;6.53;;;;;;;16.44;73.86;102434.28;5027198;27;97098;-72
2023/09/25 03:23:52;;;;;;;9.73;6.60;;;;;;;16.42;74.18;102430.78;5028149;27;99539;-72
2023/09/25 03:26:20;;;;;;;8.27;6.82;;;;;;;16.12;75.67;102432.66;5026198;27;99507;-72
2023/09/25 03:28:49;;;;;;;12.13;7.00;;;;;;;16.14;75.77;102430.84;5027469;27;98180;-72
2023/09/25 03:31:15;;;;;;;9.85;6.82;;;;;;;16.50;73.81;102431.41;5027871;27;97099;-72
2023/09/25 03:33:42;;;;;;;8.23;6.55;;;;;;;16.27;74.95;102436.66;5028526;27;97667;-72
2023/09/25 03:36:08;;;;;;;10.15;7.10;;;;;;;16.29;75.07;102435.66;5023457;27;98989;-72
2023/09/25 03:38:37;;;;;;;8.95;6.57;;;;;;;16.10;75.56;102433.63;5028378;27;99205;-73
2023/09/25 03:41:05;;;;;;;8.27;7.13;;;;;;;16.21;75.32;102435.03;5026040;27;96781;-72
2023/09/25 03:43:31;;;;;;;10.25;7.45;;;;;;;16.15;75.33;102432.56;5027572;27;96850;-72
2023/09/25 03:45:58;;;;;;;10.48;6.95;;;;;;;16.14;75.61;102438.84;5025988;27;103410;-70
2023/09/25 03:48:24;;;;;;;10.93;7.18;;;;;;;16.23;74.92;102430.53;5026596;27;96789;-71
2023/09/25 03:50:51;;;;;;;8.90;6.88;;;;;;;16.21;75.37;102427.03;5027057;27;96782;-71
2023/09/25 03:53:17;;;;;;;8.75;6.78;;;;;;;16.29;74.23;102437.44;5028096;27;97115;-70
2023/09/25 03:55:44;;;;;;;10.80;6.88;;;;;;;16.22;74.45;102436.78;5025732;27;98906;-71
2023/09/25 03:58:12;;;;;;;9.90;6.68;;;;;;;16.08;75.23;102428.34;5028461;27;98806;-71
2023/09/25 04:00:39;;;;;;;8.30;6.60;;;;;;;15.99;75.60;102428.66;5024954;27;96944;-71
2023/09/25 04:03:05;;;;;;;9.90;7.25;;;;;;;16.16;74.80;102426.31;5027369;27;98801;-71
2023/09/25 04:05:33;;;;;;;8.25;6.57;;;;;;;16.39;73.77;102427.38;5026478;27;99033;-71
2023/09/25 04:08:00;;;;;;;9.80;7.28;;;;;;;16.10;74.76;102426.50;5026520;27;98061;-72
2023/09/25 04:10:27;;;;;;;9.13;6.47;;;;;;;16.08;74.93;102430.16;5026325;27;96809;-71
2023/09/25 04:12:53;;;;;;;12.68;7.15;;;;;;;16.21;74.27;102432.34;5027581;27;96789;-71
2023/09/25 04:15:22;;;;;;;9.85;7.40;;;;;;;16.02;75.29;102425.88;5027273;27;99237;-71
2023/09/25 04:17:50;;;;;;;10.15;7.20;;;;;;;15.89;75.69;102420.03;5030488;27;99247;-72
2023/09/25 04:20:17;;;;;;;10.57;7.18;;;;;;;15.87;75.32;102421.03;5030965;27;96661;-71
2023/09/25 04:22:44;;;;;;;10.63;7.18;;;;;;;15.94;75.21;102417.25;5028875;27;96750;-71
2023/09/25 04:25:18;;;;;;;8.60;7.20;;;;;;;15.98;74.71;102421.56;5030018;27;99879;-71
2023/09/25 04:27:45;;;;;;;9.88;6.85;;;;;;;15.98;75.06;102424.22;5030574;27;99297;-71
2023/09/25 04:30:14;;;;;;;9.85;7.40;;;;;;;16.07;75.06;102423.94;5026509;27;97785;-71
2023/09/25 04:32:43;;;;;;;15.52;7.20;;;;;;;15.78;76.14;102434.63;5030240;27;96814;-71
2023/09/25 04:35:11;;;;;;;11.95;6.75;;;;;;;15.80;76.05;102431.00;5029716;27;97021;-72
2023/09/25 04:37:38;;;;;;;9.77;6.93;;;;;;;16.04;75.07;102436.50;5027312;27;99395;-71
2023/09/25 04:40:10;;;;;;;11.57;7.30;;;;;;;15.88;75.42;102434.28;5030423;27;96783;-71
2023/09/25 04:42:37;;;;;;;10.10;7.57;;;;;;;15.90;75.63;102434.25;5030075;27;97634;-72
2023/09/25 04:45:04;;;;;;;14.07;7.35;;;;;;;15.88;75.85;102438.78;5030809;27;100795;-72
2023/09/25 04:47:30;;;;;;;11.50;7.93;;;;;;;15.92;75.41;102432.41;5029636;27;97437;-72
2023/09/25 04:49:58;;;;;;;11.90;7.78;;;;;;;15.74;76.46;102441.88;5029799;27;96997;-72
2023/09/25 04:52:25;;;;;;;10.20;8.20;;;;;;;16.03;75.60;102443.63;5030888;27;96728;-71
2023/09/25 04:54:51;;;;;;;10.82;7.35;;;;;;;15.82;75.86;102438.94;5030377;27;100699;-72
2023/09/25 04:57:19;;;;;;;10.32;7.28;;;;;;;15.98;75.74;102440.22;5029842;27;99355;-72
2023/09/25 04:59:46;;;;;;;14.52;9.48;;;;;;;16.14;74.66;102433.50;5028970;27;96804;-71
2023/09/25 05:02:13;;;;;;;13.00;8.63;;;;;;;16.17;74.45;102438.72;5028504;27;97988;-72
2023/09/25 05:04:39;;;;;;;15.48;8.48;;;;;;;16.10;74.74;102433.63;5029132;27;97568;-72
2023/09/25 05:07:07;;;;;;;12.38;7.72;;;;;;;16.00;75.14;102441.06;5030862;27;98876;-72
2023/09/25 05:09:34;;;;;;;11.85;8.05;;;;;;;16.02;74.92;102436.53;5029001;27;98867;-72
2023/09/25 05:12:00;;;;;;;9.68;7.68;;;;;;;16.12;74.52;102432.66;5027522;27;97028;-72
2023/09/25 05:14:28;;;;;;;11.20;7.28;;;;;;;16.12;74.30;102439.78;5029942;27;101468;-73
2023/09/25 05:16:55;;;;;;;15.00;7.88;;;;;;;16.30;73.82;102440.06;5027618;27;99120;-73
2023/09/25 05:19:21;;;;;;;10.80;7.72;;;;;;;16.23;73.39;102443.84;5027421;27;96845;-72
2023/09/25 05:21:48;;;;;;;10.95;7.50;;;;;;;16.10;74.48;102433.63;5032196;27;97022;-72
2023/09/25 05:24:16;;;;;;;13.43;8.13;;;;;;;16.20;74.05;102443.97;5033609;27;98902;-72
2023/09/25 05:26:42;;;;;;;14.00;7.78;;;;;;;15.97;74.64;102438.47;5027222;27;99391;-72
2023/09/25 05:29:09;;;;;;;12.90;7.95;;;;;;;16.04;74.77;102433.81;5034010;27;96685;-72
2023/09/25 05:31:35;;;;;;;10.45;7.65;;;;;;;16.25;74.46;102434.03;5029021;27;97893;-73
2023/09/25 05:34:02;;;;;;;13.27;8.05;;;;;;;16.12;74.73;102446.00;5029977;27;99327;-72
2023/09/25 05:36:29;;;;;;;14.88;7.43;;;;;;;16.17;74.24;102441.38;5030636;27;99659;-72
2023/09/25 05:38:56;;;;;;;11.02;7.50;;;;;;;16.24;74.61;102442.94;5028381;27;96920;-72
2023/09/25 05:41:23;;;;;;;14.75;8.05;;;;;;;16.18;74.56;102440.47;5030418;27;97180;-72
2023/09/25 05:43:50;;;;;;;12.43;7.53;;;;;;;16.31;74.13;102447.16;5028879;27;99142;-73
2023/09/25 05:46:16;;;;;;;11.43;7.55;;;;;;;16.28;74.35;102449.03;5028312;27;98787;-71
2023/09/25 05:48:43;;;;;;;14.80;9.32;;;;;;;16.15;74.67;102445.00;5030911;27;96723;-73
2023/09/25 05:51:09;;;;;;;10.40;7.45;;;;;;;16.24;74.46;102444.72;5027695;27;97037;-71
2023/09/25 05:53:36;;;;;;;10.52;7.70;;;;;;;16.51;73.39;102445.63;5028053;27;98953;-73
2023/09/25 05:56:02;;;;;;;12.00;7.30;;;;;;;16.86;72.15;102453.34;5023373;27;99163;-72
2023/09/25 05:58:32;;;;;;;15.00;8.02;;;;;;;16.78;71.96;102438.50;5028709;27;98934;-71
2023/09/25 06:00:58;;;;;;;16.92;7.53;;;;;;;16.65;72.96;102438.94;5027498;27;98437;-73
2023/09/25 06:03:26;;;;;;;14.60;7.53;;;;;;;16.72;72.75;102440.47;5028438;27;98974;-73
2023/09/25 06:05:52;;;;;;;10.95;6.93;;;;;;;16.83;72.35;102432.09;5029635;27;99866;-72
2023/09/25 06:08:19;;;;;;;12.10;7.28;;;;;;;16.89;72.46;102441.69;5030391;27;96805;-73
2023/09/25 06:10:45;;;;;;;10.25;6.75;;;;;;;17.00;71.84;102434.19;5027094;27;97250;-72
2023/09/25 06:13:12;;;;;;;13.45;7.40;;;;;;;17.11;70.99;102440.00;5027280;27;100905;-72
2023/09/25 06:15:43;;;;;;;14.57;7.22;;;;;;;17.01;71.71;102430.56;5024822;27;98932;-72
2023/09/25 06:18:09;;;;;;;10.88;7.13;;;;;;;17.29;70.77;102431.31;5026990;27;97887;-72
2023/09/25 06:20:36;;;;;;;12.82;7.03;;;;;;;17.19;70.93;102434.38;5029812;27;96842;-72
2023/09/25 06:23:03;;;;;;;9.25;6.63;;;;;;;17.34;70.57;102433.81;5026770;27;101690;-72
2023/09/25 06:25:30;;;;;;;9.70;6.95;;;;;;;17.19;70.89;102427.25;5026599;27;99053;-73
2023/09/25 06:27:56;;;;;;;11.38;6.53;;;;;;;17.37;70.43;102433.69;5028170;27;97239;-72
2023/09/25 06:30:24;;;;;;;13.13;6.47;;;;;;;17.37;70.53;102434.56;5028130;27;96823;-72
2023/09/25 06:32:52;;;;;;;17.40;7.00;;;;;;;17.50;70.18;102435.88;5027598;27;101260;-72
2023/09/25 06:35:18;;;;;;;13.18;7.40;;;;;;;17.62;69.98;102436.34;5025157;27;99254;-71
2023/09/25 06:37:45;;;;;;;11.48;6.47;;;;;;;17.74;68.93;102436.75;5027004;28;96824;-72
2023/09/25 06:40:15;;;;;;;11.02;6.90;;;;;;;17.97;68.56;102441.22;5022690;27;96782;-72
2023/09/25 06:42:42;;;;;;;14.65;6.85;;;;;;;18.14;67.29;102448.56;5026343;27;99953;-73
2023/09/25 06:45:09;;;;;;;13.02;6.97;;;;;;;17.77;67.77;102441.13;5029168;27;99175;-72
2023/09/25 06:47:35;;;;;;;12.45;7.07;;;;;;;18.00;67.46;102434.84;5029672;27;96895;-72
2023/09/25 06:50:04;;;;;;;9.73;6.60;;;;;;;18.01;67.03;102436.59;5026937;27;96809;-72
2023/09/25 06:52:30;;;;;;;11.10;6.68;;;;;;;18.27;66.29;102434.63;5021629;27;101912;-71
2023/09/25 06:54:57;;;;;;;12.35;7.00;;;;;;;18.19;66.55;102434.06;5018900;27;99952;-73
2023/09/25 06:57:24;;;;;;;10.15;7.00;;;;;;;18.48;65.92;102427.50;5026784;27;97222;-73
2023/09/25 06:59:50;;;;;;;11.05;6.63;;;;;;;18.42;65.38;102435.78;5017182;27;98249;-72
2023/09/25 07:02:20;;;;;;;11.15;7.25;;;;;;;18.70;65.19;102431.06;5027865;27;101239;-73
2023/09/25 07:04:47;;;;;;;10.70;6.43;;;;;;;18.87;63.87;102434.81;5028298;27;99285;-72
2023/09/25 07:07:15;;;;;;;11.68;6.55;;;;;;;18.69;65.01;102436.47;5026147;27;96741;-72
2023/09/25 07:09:42;;;;;;;12.18;6.88;;;;;;;18.81;63.63;102429.72;5026705;27;98776;-72
2023/09/25 07:12:12;;;;;;;8.80;6.43;;;;;;;18.98;63.41;102438.75;5024779;27;97700;-73
2023/09/25 07:14:39;;;;;;;19.88;7.72;;;;;;;18.91;63.97;102431.03;5023163;27;98457;-73
2023/09/25 07:17:13;;;;;;;13.02;7.50;;;;;;;19.01;62.88;102443.13;5029769;27;96890;-74
2023/09/25 07:19:39;;;;;;;13.77;7.53;;;;;;;18.91;62.67;102433.72;5028240;27;97568;-71
2023/09/25 07:22:06;;;;;;;9.85;7.20;;;;;;;19.24;62.51;102431.34;5026839;27;98824;-72
2023/09/25 07:24:34;;;;;;;10.63;7.55;;;;;;;19.00;62.90;102436.88;5024678;27;99611;-72
2023/09/25 07:27:00;;;;;;;13.50;8.90;;;;;;;19.31;62.01;102433.69;5027214;27;98657;-72
2023/09/25 07:29:29;;;;;;;13.57;7.85;;;;;;;19.36;61.64;102430.81;5027334;27;97036;-72
2023/09/25 07:31:56;;;;;;;11.70;7.28;;;;;;;19.69;61.71;102439.16;5026563;27;99076;-72
2023/09/25 07:34:23;;;;;;;12.85;7.80;;;;;;;19.78;60.27;102430.66;5027776;27;99188;-72
2023/09/25 07:36:49;;;;;;;8.70;7.50;;;;;;;19.92;60.02;102432.69;5028015;27;96832;-72
2023/09/25 07:39:22;;;;;;;13.20;7.53;;;;;;;19.84;59.88;102441.09;5028559;27;96924;-72
2023/09/25 07:41:50;;;;;;;13.38;7.30;;;;;;;20.08;59.70;102439.94;5026631;27;99826;-72
2023/09/25 07:44:17;;;;;;;12.45;7.10;;;;;;;20.37;58.72;102443.03;5027281;27;100680;-72
2023/09/25 07:46:47;;;;;;;16.55;7.43;;;;;;;20.57;58.02;102437.53;5028456;27;96806;-71
2023/09/25 07:49:13;;;;;;;14.05;7.72;;;;;;;20.58;56.93;102429.41;5027179;27;98677;-73
2023/09/25 07:51:40;;;;;;;11.30;7.70;;;;;;;20.49;57.42;102434.34;5029852;27;99043;-75
2023/09/25 07:54:08;;;;;;;13.43;7.50;;;;;;;20.50;57.16;102446.84;5030748;27;101046;-71
2023/09/25 07:56:34;;;;;;;11.95;6.88;;;;;;;21.20;55.96;102427.13;5028396;27;96848;-70
2023/09/25 07:59:08;;;;;;;10.40;6.75;;;;;;;21.87;53.72;102422.44;5028931;27;96996;-72
2023/09/25 08:01:37;;;;;;;22.05;7.75;;;;;;;22.01;52.33;102424.38;5022389;27;99083;-73
2023/09/25 08:04:04;;;;;;;12.00;6.50;;;;;;;22.07;52.30;102426.72;5024767;27;99360;-73
2023/09/25 08:06:31;;;;;;;11.30;5.55;;;;;;;22.12;51.93;102429.16;5034700;27;97105;-72
2023/09/25 08:08:57;;;;;;;12.30;6.25;;;;;;;21.80;51.87;102426.41;5025876;27;98457;-72
2023/09/25 08:11:24;;;;;;;22.63;6.50;;;;;;;22.04;52.08;102431.41;5030393;27;98095;-72
2023/09/25 08:13:53;;;;;;;10.95;5.97;;;;;;;21.93;52.18;102423.91;5029371;27;99856;-71
2023/09/25 08:16:22;;;;;;;12.38;5.53;;;;;;;21.72;52.66;102420.63;5026714;27;97233;-72
2023/09/25 08:18:49;;;;;;;11.35;5.68;;;;;;;21.85;52.68;102428.88;5026918;27;97000;-72
2023/09/25 08:21:15;;;;;;;13.27;6.03;;;;;;;21.72;53.11;102431.38;5026149;27;101527;-72
2023/09/25 08:23:42;;;;;;;9.10;5.50;;;;;;;21.92;53.01;102438.34;5018863;27;98123;-72
2023/09/25 08:26:08;;;;;;;13.82;5.47;;;;;;;22.50;51.41;102441.25;5025208;27;96910;-72
2023/09/25 08:28:36;;;;;;;12.30;5.43;;;;;;;22.15;51.16;102445.13;5029712;27;96842;-71
2023/09/25 08:31:02;;;;;;;9.15;4.97;;;;;;;22.32;51.48;102447.69;5025292;27;99225;-72
2023/09/25 08:33:30;;;;;;;7.88;4.63;;;;;;;22.44;50.89;102441.63;5014291;27;98794;-69
2023/09/25 08:35:56;;;;;;;10.43;4.90;;;;;;;22.37;50.37;102437.56;5031473;27;97094;-72
2023/09/25 08:38:23;;;;;;;7.30;4.40;;;;;;;22.80;49.58;102435.03;5027666;27;97471;-74
2023/09/25 08:40:49;;;;;;;11.70;4.90;;;;;;;22.87;48.73;102439.09;5023075;27;99516;-77
2023/09/25 08:43:16;;;;;;;7.78;4.03;;;;;;;22.56;49.00;102430.13;5018596;27;98752;-76
2023/09/25 08:45:44;;;;;;;11.43;4.75;;;;;;;22.61;49.39;102441.50;5025430;27;96884;-74
2023/09/25 08:48:11;;;;;;;8.18;4.75;;;;;;;22.61;48.87;102449.56;5030459;27;99535;-73
2023/09/25 08:50:40;;;;;;;12.48;3.67;;;;;;;22.55;48.96;102449.94;5026514;27;100434;-73
2023/09/25 08:53:08;;;;;;;13.10;5.88;;;;;;;22.88;48.10;102448.91;5025314;27;98572;-72
2023/09/25 08:55:35;;;;;;;9.43;4.35;;;;;;;23.20;47.48;102442.41;5031553;27;97669;-73
2023/09/25 08:58:02;;;;;;;6.38;4.65;;;;;;;23.27;47.29;102443.78;5024955;27;97372;-72
2023/09/25 09:00:30;;;;;;;5.82;3.85;;;;;;;23.58;46.60;102442.75;5024321;27;99431;-72
2023/09/25 09:02:57;;;;;;;5.50;4.10;;;;;;;23.43;46.66;102439.16;5024168;27;98843;-71
2023/09/25 09:05:23;;;;;;;8.95;4.03;;;;;;;23.54;46.27;102430.44;5024083;27;97129;-73
2023/09/25 09:07:59;;;;;;;6.32;3.60;;;;;;;23.48;46.29;102429.94;5018565;27;97550;-73
2023/09/25 09:10:30;;;;;;;6.82;3.55;;;;;;;23.54;46.28;102434.94;5028332;27;101676;-71
2023/09/25 09:12:57;;;;;;;8.02;4.18;;;;;;;23.34;45.97;102418.16;5028471;27;99180;-71
2023/09/25 09:15:25;;;;;;;5.30;3.60;;;;;;;23.17;46.74;102426.41;5021063;27;97685;-71
2023/09/25 09:17:51;;;;;;;4.95;3.13;;;;;;;23.57;46.26;102422.13;5030840;27;97216;-72
2023/09/25 09:20:17;;;;;;;7.97;3.90;;;;;;;23.43;46.20;102428.34;5025655;27;97718;-72
2023/09/25 09:22:50;;;;;;;5.78;3.63;;;;;;;23.58;46.15;102414.91;5029678;27;101605;-72
2023/09/25 09:25:18;;;;;;;8.25;3.42;;;;;;;23.50;45.17;102415.38;5029192;27;97764;-72
2023/09/25 09:27:46;;;;;;;4.50;3.15;;;;;;;23.65;45.17;102417.09;5030945;27;97137;-72
2023/09/25 09:30:21;;;;;;;6.07;3.50;;;;;;;23.73;45.38;102412.09;5026333;27;98443;-73
2023/09/25 09:32:49;;;;;;;5.75;3.80;;;;;;;23.52;45.25;102415.28;5027811;27;99827;-73
2023/09/25 09:35:17;;;;;;;5.72;3.38;;;;;;;23.60;45.14;102413.84;5026840;27;99811;-72
2023/09/25 09:37:44;;;;;;;4.72;3.03;;;;;;;23.77;45.59;102412.75;5026342;27;98246;-71
2023/09/25 09:40:11;;;;;;;5.45;3.65;;;;;;;23.99;44.13;102410.41;5029778;27;98753;-70
2023/09/25 09:42:41;;;;;;;6.00;3.85;;;;;;;23.94;43.90;102403.56;5031663;27;98059;-72
2023/09/25 09:45:09;;;;;;;10.20;3.70;;;;;;;23.92;43.93;102400.97;5029720;27;96802;-76
2023/09/25 09:47:45;;;;;;;6.93;3.60;;;;;;;24.29;43.09;102394.00;5030270;27;97313;-74
2023/09/25 09:50:12;;;;;;;;;;;;;;;24.11;43.65;102404.19;5025131;27;100243;-72
2023/09/25 09:52:40;;;;;;;7.90;3.00;;;;;;;24.17;42.90;102398.38;5027230;27;101916;-71
2023/09/25 09:55:08;;;;;;;4.03;3.58;;;;;;;24.04;43.26;102394.75;5021991;27;98678;-72
2023/09/25 09:57:36;;;;;;;4.20;3.45;;;;;;;24.28;42.98;102383.31;5026442;27;97132;-72
2023/09/25 10:00:06;;;;;;;5.50;3.53;;;;;;;24.32;42.68;102379.44;5026543;27;98200;-72
2023/09/25 10:02:32;;;;;;;5.00;3.28;;;;;;;24.45;42.49;102380.34;5030204;27;98770;-71
2023/09/25 10:05:02;;;;;;;9.02;3.45;;;;;;;24.61;41.78;102386.44;5028571;27;96848;-71
2023/09/25 10:07:29;;;;;;;8.40;3.55;;;;;;;24.33;42.18;102382.03;5025391;27;97173;-72
2023/09/25 10:09:57;;;;;;;7.70;3.40;;;;;;;24.30;42.04;102375.97;5024846;27;98922;-72
2023/09/25 10:12:40;;;;;;;5.78;3.65;;;;;;;24.23;41.65;102370.97;5025705;27;99097;-72
2023/09/25 10:15:11;;;;;;;7.20;3.15;;;;;;;24.37;42.56;102371.88;5028771;27;97165;-71
2023/09/25 10:17:42;;;;;;;7.80;3.63;;;;;;;24.20;41.67;102373.03;5031764;27;98048;-72
2023/09/25 10:20:34;;;;;;;5.10;2.90;;;;;;;24.36;41.64;102373.72;5026025;27;100990;-72
2023/09/25 10:23:04;;;;;;;7.57;3.22;;;;;;;24.56;40.75;102377.75;5030746;27;99118;-73
2023/09/25 10:25:32;;;;;;;6.97;2.83;;;;;;;24.22;41.68;102371.94;5028912;27;97466;-72
2023/09/25 10:27:58;;;;;;;2.75;2.42;;;;;;;24.39;41.54;102369.94;5031409;27;98683;-72
2023/09/25 10:30:27;;;;;;;5.00;3.35;;;;;;;24.21;41.86;102370.22;5028140;27;98886;-72
2023/09/25 10:32:56;;;;;;;3.15;2.78;;;;;;;24.15;41.84;102362.50;5026581;27;97776;-72
2023/09/25 10:35:47;;;;;;;5.78;2.60;;;;;;;24.23;40.56;102364.69;5027909;27;97282;-71
2023/09/25 10:38:17;;;;;;;4.50;2.90;;;;;;;24.00;41.30;102360.84;5027597;27;96901;-71
2023/09/25 10:40:44;;;;;;;3.75;2.63;;;;;;;24.17;40.67;102357.84;5027166;27;99090;-71
2023/09/25 10:43:11;;;;;;;3.35;2.40;;;;;;;24.28;40.98;102356.31;5017215;27;98981;-71
2023/09/25 10:45:39;;;;;;;3.85;2.88;;;;;;;24.31;40.50;102356.09;5023965;27;97585;-72
2023/09/25 10:48:07;;;;;;;5.45;2.70;;;;;;;24.21;40.39;102353.16;5027196;27;99286;-71
2023/09/25 10:50:34;;;;;;;9.63;2.92;;;;;;;24.16;40.70;102342.63;5027935;27;98307;-72
2023/09/25 10:53:00;;;;;;;6.53;2.88;;;;;;;24.36;40.20;102346.69;5027876;27;102605;-71
2023/09/25 10:55:26;;;;;;;4.53;2.40;;;;;;;24.26;41.16;102339.34;5028307;27;96800;-71
2023/09/25 10:57:53;;;;;;;2.65;2.30;;;;;;;24.20;41.23;102338.78;5029114;27;97293;-71
2023/09/25 11:00:19;;;;;;;2.65;2.45;;;;;;;23.95;41.43;102341.38;5028163;27;98151;-72
2023/09/25 11:02:47;;;;;;;4.30;2.40;;;;;;;24.20;40.74;102333.38;5029970;27;98886;-71
2023/09/25 11:05:14;;;;;;;3.42;2.47;;;;;;;24.42;40.08;102330.06;5018845;27;96750;-71
2023/09/25 11:07:43;;;;;;;3.65;2.15;;;;;;;24.14;40.25;102331.06;5022240;27;97072;-72
2023/09/25 11:10:13;;;;;;;5.57;2.00;;;;;;;23.97;40.30;102323.22;5021893;27;99320;-72
2023/09/25 11:12:40;;;;;;;4.40;2.17;;;;;;;24.27;40.27;102314.94;5030072;27;99267;-72
2023/09/25 11:15:13;;;;;;;4.35;2.15;;;;;;;24.47;40.34;102318.97;5031907;27;97571;-72
2023/09/25 11:17:40;;;;;;;2.20;1.70;;;;;;;24.34;40.07;102313.53;5029503;27;96830;-72
2023/09/25 11:20:12;;;;;;;3.75;1.85;;;;;;;24.40;40.10;102317.66;5024514;27;99106;-71
2023/09/25 11:22:39;;;;;;;2.97;2.00;;;;;;;24.40;39.65;102315.81;5022789;27;99702;-71